createdAt,value
2023-06-26T00:00:09.165Z,101219.94
2023-06-26T00:02:37.176Z,101218.16
2023-06-26T00:05:05.268Z,101218.16
2023-06-26T00:07:35.297Z,101223.41
2023-06-26T00:10:03.883Z,101223.41
2023-06-26T00:12:32.133Z,101224.22
2023-06-26T00:15:01.501Z,101224.13
2023-06-26T00:17:31.191Z,101218.78
2023-06-26T00:19:59.136Z,101216.03
2023-06-26T00:22:27.101Z,101213.28
2023-06-26T00:25:23.872Z,101217.75
2023-06-26T00:27:52.011Z,101213.28
2023-06-26T00:30:20.009Z,101209.66
2023-06-26T00:32:49.534Z,101202.50
2023-06-26T00:35:17.625Z,101208.69
2023-06-26T00:37:46.465Z,101208.69
2023-06-26T00:40:15.080Z,101210.41
2023-06-26T00:42:43.196Z,101205.09
2023-06-26T00:45:11.396Z,101206.84
2023-06-26T00:47:39.753Z,101202.38
2023-06-26T00:50:09.760Z,101194.41
2023-06-26T00:52:38.081Z,101197.06
2023-06-26T00:55:06.300Z,101205.03
2023-06-26T00:57:34.469Z,101191.81
2023-06-26T01:00:05.099Z,101199.78
2023-06-26T01:02:35.185Z,101192.69
2023-06-26T01:05:07.381Z,101202.34
2023-06-26T01:07:39.209Z,101199.66
2023-06-26T01:10:08.019Z,101201.31
2023-06-26T01:12:36.003Z,101203.03
2023-06-26T01:15:04.442Z,101209.16
2023-06-26T01:17:33.501Z,101213.56
2023-06-26T01:20:02.037Z,101208.25
2023-06-26T01:22:35.065Z,101200.25
2023-06-26T01:25:10.242Z,101206.41
2023-06-26T01:27:40.230Z,101204.69
2023-06-26T01:30:09.543Z,101203.75
2023-06-26T01:32:38.021Z,101201.06
2023-06-26T01:35:08.159Z,101202.75
2023-06-26T01:37:36.095Z,101192.03
2023-06-26T01:40:06.596Z,101198.13
2023-06-26T01:42:34.839Z,101189.19
2023-06-26T01:45:07.880Z,101195.25
2023-06-26T01:47:40.065Z,101187.09
2023-06-26T01:50:11.930Z,101188.75
2023-06-26T01:52:42.776Z,101189.50
2023-06-26T01:55:14.783Z,101191.22
2023-06-26T01:57:44.388Z,101191.97
2023-06-26T02:00:15.769Z,101191.88
2023-06-26T02:02:44.388Z,101183.81
2023-06-26T02:05:15.480Z,101182.78
2023-06-26T02:07:43.697Z,101189.78
2023-06-26T02:10:12.334Z,101187.09
2023-06-26T02:12:40.598Z,101182.53
2023-06-26T02:15:09.736Z,101185.03
2023-06-26T02:17:39.243Z,101183.09
2023-06-26T02:20:10.476Z,101183.88
2023-06-26T02:22:38.592Z,101184.59
2023-06-26T02:25:06.960Z,101182.69
2023-06-26T02:27:34.972Z,101195.88
2023-06-26T02:30:02.909Z,101190.41
2023-06-26T02:32:31.941Z,101188.50
2023-06-26T02:35:01.251Z,101190.00
2023-06-26T02:37:29.364Z,101193.44
2023-06-26T02:39:57.407Z,101191.69
2023-06-26T02:42:25.437Z,101196.19
2023-06-26T02:44:53.850Z,101195.28
2023-06-26T02:47:21.882Z,101192.41
2023-06-26T02:49:50.250Z,101188.69
2023-06-26T02:52:20.216Z,101201.84
2023-06-26T02:54:48.684Z,101194.78
2023-06-26T02:57:18.220Z,101190.50
2023-06-26T02:59:46.250Z,101190.59
2023-06-26T03:02:15.414Z,101201.31
2023-06-26T03:04:46.948Z,101188.91
2023-06-26T03:07:16.113Z,101188.91
2023-06-26T03:09:45.911Z,101190.66
2023-06-26T03:12:14.540Z,101194.16
2023-06-26T03:14:46.507Z,101194.78
2023-06-26T03:17:15.539Z,101193.69
2023-06-26T03:19:46.175Z,101190.88
2023-06-26T03:22:21.312Z,101181.31
2023-06-26T03:24:51.120Z,101184.47
2023-06-26T03:27:19.731Z,101179.84
2023-06-26T03:29:49.702Z,101186.84
2023-06-26T03:32:21.949Z,101178.91
2023-06-26T03:34:51.348Z,101183.59
2023-06-26T03:37:19.426Z,101182.81
2023-06-26T03:39:47.684Z,101183.28
2023-06-26T03:42:23.360Z,101189.91
2023-06-26T03:44:51.454Z,101185.78
2023-06-26T03:47:20.861Z,101192.31
2023-06-26T03:49:49.013Z,101195.94
2023-06-26T03:52:16.944Z,101185.38
2023-06-26T03:54:44.981Z,101187.50
2023-06-26T03:57:13.105Z,101188.22
2023-06-26T03:59:42.636Z,101182.47
2023-06-26T04:02:10.773Z,101181.69
2023-06-26T04:04:39.098Z,101179.38
2023-06-26T04:07:07.360Z,101182.56
2023-06-26T04:09:35.375Z,101175.28
2023-06-26T04:12:03.361Z,101172.47
2023-06-26T04:14:31.412Z,101183.78
2023-06-26T04:17:02.982Z,101182.97
2023-06-26T04:19:31.343Z,101189.69
2023-06-26T04:21:59.582Z,101185.00
2023-06-26T04:24:27.691Z,101183.19
2023-06-26T04:26:58.254Z,101188.88
2023-06-26T04:29:26.833Z,101180.84
2023-06-26T04:31:59.553Z,101185.53
2023-06-26T04:34:33.707Z,101185.72
2023-06-26T04:37:01.833Z,101183.38
2023-06-26T04:39:29.775Z,101186.66
2023-06-26T04:41:57.805Z,101174.91
2023-06-26T04:44:25.788Z,101175.94
2023-06-26T04:46:54.113Z,101177.34
2023-06-26T04:49:22.120Z,101176.63
2023-06-26T04:51:52.193Z,101180.00
2023-06-26T04:54:20.204Z,101182.13
2023-06-26T04:56:49.331Z,101185.75
2023-06-26T04:59:17.337Z,101170.44
2023-06-26T05:01:49.576Z,101173.00
2023-06-26T05:04:17.995Z,101169.63
2023-06-26T05:06:46.060Z,101177.13
2023-06-26T05:09:15.625Z,101175.34
2023-06-26T05:11:43.767Z,101169.72
2023-06-26T05:14:12.099Z,101171.28
2023-06-26T05:16:39.969Z,101176.47
2023-06-26T05:19:08.061Z,101174.94
2023-06-26T05:21:36.402Z,101169.06
2023-06-26T05:24:04.925Z,101170.41
2023-06-26T05:26:34.728Z,101169.75
2023-06-26T05:29:03.145Z,101174.25
2023-06-26T05:31:34.508Z,101176.94
2023-06-26T05:34:05.001Z,101173.13
2023-06-26T05:36:35.103Z,101171.47
2023-06-26T05:39:03.687Z,101173.72
2023-06-26T05:41:31.964Z,101178.44
2023-06-26T05:44:01.463Z,101173.88
2023-06-26T05:46:29.444Z,101174.66
2023-06-26T05:48:57.391Z,101169.56
2023-06-26T05:51:26.158Z,101171.56
2023-06-26T05:53:54.483Z,101172.16
2023-06-26T05:56:22.961Z,101177.06
2023-06-26T05:58:52.242Z,101171.00
2023-06-26T06:01:22.099Z,101174.47
2023-06-26T06:03:50.646Z,101171.97
2023-06-26T06:06:19.260Z,101174.50
2023-06-26T06:08:49.411Z,101166.44
2023-06-26T06:11:17.813Z,101166.19
2023-06-26T06:13:45.867Z,101176.38
2023-06-26T06:16:13.868Z,101175.63
2023-06-26T06:18:43.556Z,101166.78
2023-06-26T06:21:11.589Z,101172.66
2023-06-26T06:23:40.205Z,101171.91
2023-06-26T06:26:08.186Z,101160.13
2023-06-26T06:28:36.992Z,101168.88
2023-06-26T06:31:05.449Z,101172.00
2023-06-26T06:33:33.458Z,101169.22
2023-06-26T06:36:02.768Z,101166.38
2023-06-26T06:38:59.122Z,101161.19
2023-06-26T06:41:27.165Z,101162.53
2023-06-26T06:43:55.478Z,101154.97
2023-06-26T06:46:24.861Z,101160.03
2023-06-26T06:48:53.294Z,101166.91
2023-06-26T06:51:24.014Z,101152.88
2023-06-26T06:53:52.489Z,101156.41
2023-06-26T06:56:20.428Z,101155.72
2023-06-26T06:58:48.456Z,101161.50
2023-06-26T07:01:16.457Z,101159.25
2023-06-26T07:03:44.763Z,101159.59
2023-06-26T07:06:12.908Z,101157.38
2023-06-26T07:08:42.347Z,101152.50
2023-06-26T07:11:10.317Z,101155.03
2023-06-26T07:13:38.720Z,101154.03
2023-06-26T07:16:06.690Z,101160.72
2023-06-26T07:18:34.789Z,101160.41
2023-06-26T07:21:02.717Z,101161.63
2023-06-26T07:23:31.374Z,101162.16
2023-06-26T07:26:00.821Z,101153.22
2023-06-26T07:28:28.920Z,101161.31
2023-06-26T07:30:56.927Z,101163.28
2023-06-26T07:33:25.026Z,101164.63
2023-06-26T07:35:52.968Z,101150.56
2023-06-26T07:38:21.105Z,101160.88
2023-06-26T07:40:49.285Z,101162.22
2023-06-26T07:43:18.671Z,101161.84
2023-06-26T07:45:46.587Z,101154.97
2023-06-26T07:48:14.716Z,101158.13
2023-06-26T07:50:42.898Z,101150.00
2023-06-26T07:53:11.120Z,101153.69
2023-06-26T07:55:39.313Z,101152.31
2023-06-26T07:58:07.350Z,101153.97
2023-06-26T08:00:37.046Z,101159.53
2023-06-26T08:03:06.004Z,101155.19
2023-06-26T08:05:35.881Z,101146.81
2023-06-26T08:08:04.305Z,101156.00
2023-06-26T08:10:32.715Z,101149.84
2023-06-26T08:13:00.894Z,101147.50
2023-06-26T08:15:28.868Z,101140.75
2023-06-26T08:17:58.455Z,101143.41
2023-06-26T08:20:26.573Z,101143.03
2023-06-26T08:22:55.539Z,101135.44
2023-06-26T08:25:23.592Z,101135.19
2023-06-26T08:27:53.874Z,101141.22
2023-06-26T08:30:22.020Z,101151.31
2023-06-26T08:32:52.676Z,101151.31
2023-06-26T08:35:22.206Z,101138.44
2023-06-26T08:37:50.240Z,101144.59
2023-06-26T08:40:19.798Z,101134.03
2023-06-26T08:42:48.135Z,101143.63
2023-06-26T08:45:16.401Z,101144.16
2023-06-26T08:47:45.988Z,101148.69
2023-06-26T08:50:14.920Z,101135.03
2023-06-26T08:52:46.370Z,101140.25
2023-06-26T08:55:14.731Z,101144.59
2023-06-26T08:57:44.176Z,101145.19
2023-06-26T09:03:16.561Z,101132.56
2023-06-26T09:05:44.706Z,101142.75
2023-06-26T09:08:17.119Z,101139.63
2023-06-26T09:10:48.395Z,101133.25
2023-06-26T09:13:28.046Z,101136.41
2023-06-26T09:15:58.231Z,101137.34
2023-06-26T09:18:28.937Z,101126.19
2023-06-26T09:20:57.016Z,101128.25
2023-06-26T09:23:26.480Z,101123.53
2023-06-26T09:25:54.620Z,101120.63
2023-06-26T09:28:22.648Z,101112.63
2023-06-26T09:30:54.335Z,101119.34
2023-06-26T09:33:22.994Z,101121.28
2023-06-26T09:35:51.134Z,101114.84
2023-06-26T09:38:19.563Z,101106.66
2023-06-26T09:40:49.106Z,101109.56
2023-06-26T09:43:17.230Z,101099.84
2023-06-26T09:45:46.676Z,101103.16
2023-06-26T09:48:18.527Z,101101.31
2023-06-26T09:50:56.619Z,101100.50
2023-06-26T09:53:37.180Z,101108.59
2023-06-26T09:56:09.055Z,101106.13
2023-06-26T09:58:38.687Z,101099.00
2023-06-26T10:01:08.729Z,101089.81
2023-06-26T10:03:37.219Z,101096.75
2023-06-26T10:06:06.560Z,101090.41
2023-06-26T10:08:36.625Z,101087.69
2023-06-26T10:11:04.688Z,101089.06
2023-06-26T10:13:37.062Z,101091.75
2023-06-26T10:16:05.702Z,101089.34
2023-06-26T10:18:34.950Z,101086.81
2023-06-26T10:21:04.655Z,101091.97
2023-06-26T10:23:33.230Z,101096.06
2023-06-26T10:26:04.601Z,101092.84
2023-06-26T10:28:35.706Z,101092.63
2023-06-26T10:31:05.571Z,101088.38
2023-06-26T10:33:34.264Z,101084.53
2023-06-26T10:36:17.073Z,101087.13
2023-06-26T10:38:52.337Z,101090.19
2023-06-26T10:41:24.281Z,101088.94
2023-06-26T10:44:08.333Z,101082.94
2023-06-26T10:46:50.295Z,101086.78
2023-06-26T10:49:19.579Z,101085.69
2023-06-26T10:51:51.683Z,101091.75
2023-06-26T10:54:20.957Z,101097.81
2023-06-26T10:56:49.585Z,101098.47
2023-06-26T10:59:20.029Z,101113.63
2023-06-26T11:01:48.465Z,101108.50
2023-06-26T11:04:17.808Z,101117.19
2023-06-26T11:06:47.752Z,101116.25
2023-06-26T11:09:16.884Z,101105.22
2023-06-26T11:11:59.951Z,101109.53
2023-06-26T11:14:30.134Z,101111.72
2023-06-26T11:16:59.463Z,101106.84
2023-06-26T11:19:28.567Z,101097.81
2023-06-26T11:22:01.585Z,101098.03
2023-06-26T11:24:30.696Z,101099.00
2023-06-26T11:27:02.144Z,101111.09
2023-06-26T11:29:31.727Z,101114.25
2023-06-26T11:32:07.268Z,101117.34
2023-06-26T11:34:36.285Z,101125.84
2023-06-26T11:37:05.063Z,101142.41
2023-06-26T11:39:33.563Z,101128.09
2023-06-26T11:42:02.180Z,101111.38
2023-06-26T11:44:34.762Z,101105.41
2023-06-26T11:47:02.832Z,101104.38
2023-06-26T11:49:31.525Z,101094.84
2023-06-26T11:52:00.081Z,101104.88
2023-06-26T11:54:29.210Z,101111.78
2023-06-26T11:56:59.809Z,101124.25
2023-06-26T11:59:36.015Z,101149.69
2023-06-26T12:02:07.112Z,101142.16
2023-06-26T12:04:36.730Z,101151.31
2023-06-26T12:07:08.270Z,101157.63
2023-06-26T12:09:37.950Z,101162.19
2023-06-26T12:12:06.627Z,101156.91
2023-06-26T12:14:36.537Z,101148.75
2023-06-26T12:17:09.725Z,101135.69
2023-06-26T12:19:39.480Z,101120.75
2023-06-26T12:22:12.434Z,101122.78
2023-06-26T12:24:41.461Z,101121.94
2023-06-26T12:27:10.693Z,101115.47
2023-06-26T12:29:41.204Z,101111.63
2023-06-26T12:32:11.374Z,101108.78
2023-06-26T12:34:40.294Z,101105.78
2023-06-26T12:37:09.806Z,101109.50
2023-06-26T12:39:48.722Z,101114.06
2023-06-26T12:42:17.770Z,101121.53
2023-06-26T12:44:48.000Z,101127.44
2023-06-26T12:47:16.791Z,101133.22
2023-06-26T12:49:45.912Z,101111.94
2023-06-26T12:52:14.950Z,101110.25
2023-06-26T12:54:44.455Z,101106.38
2023-06-26T12:57:15.524Z,101110.31
2023-06-26T12:59:44.301Z,101105.16
2023-06-26T13:02:14.671Z,101092.38
2023-06-26T13:04:45.812Z,101098.50
2023-06-26T13:07:14.993Z,101099.47
2023-06-26T13:09:43.180Z,101096.78
2023-06-26T13:12:11.754Z,101100.88
2023-06-26T13:14:40.920Z,101088.06
2023-06-26T13:17:10.131Z,101090.50
2023-06-26T13:19:40.174Z,101091.91
2023-06-26T13:22:16.693Z,101072.19
2023-06-26T13:24:45.029Z,101075.84
2023-06-26T13:27:13.341Z,101078.47
2023-06-26T13:29:44.661Z,101079.44
2023-06-26T13:32:23.391Z,101071.09
2023-06-26T13:34:53.483Z,101075.00
2023-06-26T13:37:21.645Z,101060.31
2023-06-26T13:39:51.425Z,101069.38
2023-06-26T13:42:20.114Z,101069.94
2023-06-26T13:45:01.078Z,101059.78
2023-06-26T13:47:32.336Z,101067.38
2023-06-26T13:50:01.870Z,101064.09
2023-06-26T13:52:29.961Z,101064.44
2023-06-26T13:54:58.065Z,101065.22
2023-06-26T13:57:28.809Z,101061.47
2023-06-26T13:59:56.840Z,101067.94
2023-06-26T14:02:27.715Z,101076.38
2023-06-26T14:04:56.011Z,101073.19
2023-06-26T14:07:26.170Z,101068.06
2023-06-26T14:09:54.625Z,101067.28
2023-06-26T14:12:22.763Z,101071.25
2023-06-26T14:14:50.980Z,101065.13
2023-06-26T14:17:19.327Z,101068.81
2023-06-26T14:19:48.158Z,101062.94
2023-06-26T14:22:16.253Z,101061.66
2023-06-26T14:24:45.957Z,101064.72
2023-06-26T14:27:15.778Z,101063.34
2023-06-26T14:29:43.923Z,101062.63
2023-06-26T14:32:13.913Z,101057.59
2023-06-26T14:34:42.395Z,101060.50
2023-06-26T14:37:10.961Z,101056.00
2023-06-26T14:39:43.623Z,101057.69
2023-06-26T14:42:15.059Z,101055.78
2023-06-26T14:44:47.867Z,101057.69
2023-06-26T14:47:16.427Z,101063.09
2023-06-26T14:49:44.604Z,101052.41
2023-06-26T14:52:13.007Z,101050.66
2023-06-26T14:54:41.282Z,101054.44
2023-06-26T14:57:09.526Z,101052.81
2023-06-26T14:59:39.297Z,101050.91
2023-06-26T15:02:07.667Z,101046.34
2023-06-26T15:04:35.788Z,101052.47
2023-06-26T15:07:03.965Z,101053.19
2023-06-26T15:09:33.231Z,101045.09
2023-06-26T15:12:01.377Z,101044.69
2023-06-26T15:14:29.868Z,101047.75
2023-06-26T15:16:59.366Z,101050.09
2023-06-26T15:19:27.438Z,101044.66
2023-06-26T15:21:55.576Z,101044.28
2023-06-26T15:24:23.745Z,101032.38
2023-06-26T15:26:52.173Z,101039.31
2023-06-26T15:29:20.405Z,101028.44
2023-06-26T15:31:48.550Z,101028.25
2023-06-26T15:34:18.054Z,101018.44
2023-06-26T15:36:46.063Z,101020.22
2023-06-26T15:39:14.340Z,100995.78
2023-06-26T15:41:42.507Z,101011.25
2023-06-26T15:44:10.553Z,101004.09
2023-06-26T15:46:39.142Z,101007.63
2023-06-26T15:49:09.035Z,101004.94
2023-06-26T15:51:38.980Z,101011.97
2023-06-26T15:54:07.586Z,101015.84
2023-06-26T15:56:35.799Z,101019.84
2023-06-26T15:59:03.808Z,101019.22
2023-06-26T16:01:32.113Z,101025.19
2023-06-26T16:04:00.935Z,101024.91
2023-06-26T16:06:31.608Z,101028.13
2023-06-26T16:09:01.523Z,101027.56
2023-06-26T16:11:29.707Z,101027.69
2023-06-26T16:13:59.611Z,101024.69
2023-06-26T16:16:27.774Z,101028.63
2023-06-26T16:18:59.173Z,101025.72
2023-06-26T16:21:27.432Z,101025.50
2023-06-26T16:23:55.629Z,101030.69
2023-06-26T16:26:25.236Z,101034.31
2023-06-26T16:28:53.482Z,101030.88
2023-06-26T16:31:21.848Z,101033.91
2023-06-26T16:34:04.494Z,101036.75
2023-06-26T16:36:33.070Z,101041.34
2023-06-26T16:39:02.372Z,101035.22
2023-06-26T16:41:32.735Z,101033.66
2023-06-26T16:44:00.856Z,101036.78
2023-06-26T16:46:29.096Z,101041.28
2023-06-26T16:48:58.246Z,101034.19
2023-06-26T16:51:26.433Z,101029.88
2023-06-26T16:53:54.688Z,101035.25
2023-06-26T16:56:23.186Z,101036.09
2023-06-26T16:58:52.946Z,101034.38
2023-06-26T17:01:23.951Z,101025.53
2023-06-26T17:03:52.987Z,101022.97
2023-06-26T17:06:21.206Z,101033.78
2023-06-26T17:08:49.336Z,101032.97
2023-06-26T17:11:18.203Z,101034.78
2023-06-26T17:13:48.409Z,101032.19
2023-06-26T17:16:21.047Z,101033.13
2023-06-26T17:18:49.442Z,101036.78
2023-06-26T17:21:17.541Z,101028.91
2023-06-26T17:23:45.576Z,101022.00
2023-06-26T17:26:13.840Z,101015.19
2023-06-26T17:28:42.035Z,101019.84
2023-06-26T17:31:10.183Z,101030.72
2023-06-26T17:33:39.999Z,101025.53
2023-06-26T17:36:09.513Z,101034.72
2023-06-26T17:38:38.929Z,101026.66
2023-06-26T17:41:07.083Z,101021.41
2023-06-26T17:43:36.002Z,101022.41
2023-06-26T17:46:04.351Z,101023.53
2023-06-26T17:48:32.772Z,101016.00
2023-06-26T17:51:02.407Z,101020.59
2023-06-26T17:53:30.718Z,101014.53
2023-06-26T17:55:58.893Z,101015.75
2023-06-26T17:58:27.854Z,101020.50
2023-06-26T18:00:56.271Z,101017.19
2023-06-26T18:03:24.563Z,101012.97
2023-06-26T18:05:53.115Z,101019.44
2023-06-26T18:08:22.915Z,101009.03
2023-06-26T18:10:51.051Z,101017.22
2023-06-26T18:13:19.452Z,101015.72
2023-06-26T18:15:47.595Z,101013.31
2023-06-26T18:18:16.328Z,101011.72
2023-06-26T18:20:44.740Z,101009.38
2023-06-26T18:23:12.918Z,101007.03
2023-06-26T18:25:42.542Z,101001.03
2023-06-26T18:28:10.783Z,100995.09
2023-06-26T18:30:39.235Z,100991.94
2023-06-26T18:33:08.048Z,101004.06
2023-06-26T18:35:36.419Z,101006.41
2023-06-26T18:38:06.130Z,101005.94
2023-06-26T18:40:34.292Z,101005.44
2023-06-26T18:43:04.285Z,101004.94
2023-06-26T18:45:34.589Z,101010.59
2023-06-26T18:48:02.726Z,101018.09
2023-06-26T18:50:31.135Z,101014.94
2023-06-26T18:52:59.623Z,101011.13
2023-06-26T18:55:29.433Z,101016.00
2023-06-26T18:57:57.591Z,101033.22
2023-06-26T19:00:27.202Z,101022.00
2023-06-26T19:02:55.433Z,101022.31
2023-06-26T19:05:23.536Z,101018.28
2023-06-26T19:07:51.938Z,101020.50
2023-06-26T19:10:20.236Z,101019.03
2023-06-26T19:12:50.225Z,101020.19
2023-06-26T19:15:18.814Z,101026.59
2023-06-26T19:17:48.593Z,101018.78
2023-06-26T19:20:17.420Z,101020.94
2023-06-26T19:22:45.598Z,101031.03
2023-06-26T19:25:13.686Z,101026.94
2023-06-26T19:27:42.572Z,101023.88
2023-06-26T19:30:11.154Z,101019.69
2023-06-26T19:32:39.322Z,101026.88
2023-06-26T19:35:10.041Z,101025.34
2023-06-26T19:37:45.740Z,101026.53
2023-06-26T19:40:27.710Z,101028.66
2023-06-26T19:42:56.007Z,101021.06
2023-06-26T19:45:24.306Z,101019.53
2023-06-26T19:47:55.488Z,101023.41
2023-06-26T19:50:25.151Z,101020.97
2023-06-26T19:52:53.310Z,101016.78
2023-06-26T19:55:21.637Z,101020.50
2023-06-26T19:57:50.898Z,101018.03
2023-06-26T20:00:19.726Z,101009.34
2023-06-26T20:02:48.200Z,101013.06
2023-06-26T20:05:16.650Z,101007.16
2023-06-26T20:07:47.345Z,101010.09
2023-06-26T20:10:15.936Z,101004.09
2023-06-26T20:12:46.831Z,100978.75
2023-06-26T20:15:15.062Z,101002.34
2023-06-26T20:17:43.374Z,100999.81
2023-06-26T20:20:12.143Z,100998.06
2023-06-26T20:22:40.264Z,101006.06
2023-06-26T20:25:10.479Z,101008.72
2023-06-26T20:27:39.316Z,101005.19
2023-06-26T20:30:08.466Z,101007.06
2023-06-26T20:32:36.528Z,101005.31
2023-06-26T20:35:04.665Z,101002.78
2023-06-26T20:37:32.777Z,101004.56
2023-06-26T20:40:01.656Z,101010.81
2023-06-26T20:42:31.523Z,101005.59
2023-06-26T20:44:59.906Z,101006.56
2023-06-26T20:47:34.253Z,101008.50
2023-06-26T20:50:08.548Z,101008.75
2023-06-26T20:52:44.731Z,101001.94
2023-06-26T20:55:13.610Z,100994.06
2023-06-26T20:57:43.134Z,101003.06
2023-06-26T21:00:13.973Z,101003.28
2023-06-26T21:02:42.340Z,101001.72
2023-06-26T21:05:10.964Z,100993.00
2023-06-26T21:07:39.047Z,100996.59
2023-06-26T21:10:09.554Z,100994.94
2023-06-26T21:12:37.987Z,100994.38
2023-06-26T21:15:08.515Z,100993.78
2023-06-26T21:17:36.584Z,100994.81
2023-06-26T21:20:05.500Z,100995.84
2023-06-26T21:22:33.630Z,101000.41
2023-06-26T21:25:02.367Z,100999.66
2023-06-26T21:27:31.878Z,100997.91
2023-06-26T21:29:59.986Z,101004.25
2023-06-26T21:32:29.582Z,100999.34
2023-06-26T21:34:57.660Z,100996.88
2023-06-26T21:37:26.394Z,101004.09
2023-06-26T21:39:54.469Z,101003.22
2023-06-26T21:42:22.626Z,101001.47
2023-06-26T21:44:50.652Z,101000.59
2023-06-26T21:47:18.843Z,100996.16
2023-06-26T21:49:49.754Z,100994.41
2023-06-26T21:52:18.181Z,100998.78
2023-06-26T21:54:46.370Z,101003.22
2023-06-26T21:57:14.573Z,100998.78
2023-06-26T21:59:42.853Z,101006.75
2023-06-26T22:02:11.094Z,101005.06
2023-06-26T22:04:39.397Z,101013.16
2023-06-26T22:07:08.944Z,101000.16
2023-06-26T22:09:39.274Z,101001.22
2023-06-26T22:12:07.997Z,101004.06
2023-06-26T22:14:36.131Z,101003.25
2023-06-26T22:17:04.325Z,101008.81
2023-06-26T22:19:32.883Z,101008.97
2023-06-26T22:22:01.776Z,101003.75
2023-06-26T22:24:33.309Z,101004.72
2023-06-26T22:27:02.483Z,101002.94
2023-06-26T22:29:30.720Z,101001.16
2023-06-26T22:31:58.896Z,101002.84
2023-06-26T22:34:27.117Z,100995.75
2023-06-26T22:36:56.372Z,100992.16
2023-06-26T22:39:24.445Z,100994.88
2023-06-26T22:41:53.921Z,100999.31
2023-06-26T22:44:21.984Z,100994.97
2023-06-26T22:46:50.247Z,100996.69
2023-06-26T22:49:18.321Z,100994.97
2023-06-26T22:51:50.258Z,100995.97
2023-06-26T22:54:18.376Z,100991.63
2023-06-26T22:56:55.294Z,100990.78
2023-06-26T22:59:26.167Z,100984.56
2023-06-26T23:01:54.346Z,100983.56
2023-06-26T23:04:22.733Z,100994.97
2023-06-26T23:06:52.378Z,100984.31
2023-06-26T23:09:20.806Z,100993.13
2023-06-26T23:11:48.897Z,100999.34
2023-06-26T23:14:19.667Z,101000.28
2023-06-26T23:17:02.301Z,101003.81
2023-06-26T23:19:30.842Z,100999.50
2023-06-26T23:21:59.679Z,101000.56
2023-06-26T23:24:29.881Z,101013.13
2023-06-26T23:27:00.205Z,101011.47
2023-06-26T23:29:28.559Z,101013.44
2023-06-26T23:31:58.360Z,101010.25
2023-06-26T23:34:26.510Z,101002.66
2023-06-26T23:36:54.674Z,101013.66
2023-06-26T23:39:22.643Z,101012.13
2023-06-26T23:41:51.690Z,101012.19
2023-06-26T23:44:21.180Z,101009.63
2023-06-26T23:46:50.019Z,100982.00
2023-06-26T23:49:19.536Z,101006.41
2023-06-26T23:51:48.475Z,101011.09
2023-06-26T23:54:17.188Z,101015.66
2023-06-26T23:56:45.630Z,101014.81
2023-06-26T23:59:13.935Z,101018.47
